Time;durP1;ratioP1;P1;durP2;ratioP2;P2;SDS_P1;SDS_P2;PMS_P1;PMS_P2;Temp;Humidity;BMP_temperature;BMP_pressure;BME280_temperature;BME280_humidity;BME280_pressure;Samples;Min_cycle;Max_cycle;Signal;HPM_P1;HPM_P2
2024/01/08 00:01:27;;;;;;;5.20;2.10;;;6.50;99.90;;;;;;5092207;28;20065;-73
2024/01/08 00:03:52;;;;;;;6.95;2.20;;;6.50;99.90;;;;;;5092197;28;20028;-73
2024/01/08 00:06:18;;;;;;;7.07;2.20;;;6.50;99.90;;;;;;5092140;28;20469;-73
2024/01/08 00:08:44;;;;;;;4.47;1.80;;;6.50;99.90;;;;;;5091884;28;20103;-73
2024/01/08 00:11:10;;;;;;;4.82;2.17;;;6.50;99.90;;;;;;5092214;28;20024;-73
2024/01/08 00:13:35;;;;;;;7.22;2.10;;;6.50;99.90;;;;;;5092063;28;20454;-73
2024/01/08 00:16:01;;;;;;;5.05;2.22;;;6.50;99.90;;;;;;5092177;28;20115;-73
2024/01/08 00:18:29;;;;;;;5.97;2.30;;;6.50;99.90;;;;;;5092554;28;20032;-73
2024/01/08 00:20:56;;;;;;;5.60;1.95;;;6.60;99.90;;;;;;5092011;28;20385;-73
2024/01/08 00:23:23;;;;;;;5.22;2.28;;;6.80;99.90;;;;;;5092244;28;20071;-73
2024/01/08 00:25:48;;;;;;;5.47;2.10;;;6.90;99.90;;;;;;5091766;28;20107;-73
2024/01/08 00:28:14;;;;;;;8.70;2.28;;;7.20;99.90;;;;;;5090768;28;20469;-73
2024/01/08 00:30:40;;;;;;;4.93;2.03;;;7.20;99.90;;;;;;5091838;28;20024;-73
2024/01/08 00:33:06;;;;;;;6.57;2.42;;;7.40;99.90;;;;;;5091917;28;20040;-73
2024/01/08 00:35:31;;;;;;;5.82;2.30;;;7.40;99.90;;;;;;5092213;28;20020;-74
2024/01/08 00:37:57;;;;;;;4.75;2.33;;;7.40;99.90;;;;;;5091800;28;20035;-73
2024/01/08 00:40:23;;;;;;;8.35;2.25;;;7.30;99.90;;;;;;5093819;28;20028;-73
2024/01/08 00:42:48;;;;;;;5.72;2.30;;;7.20;99.90;;;;;;5096177;28;20034;-74
2024/01/08 00:45:14;;;;;;;5.25;2.03;;;7.10;99.90;;;;;;5095692;28;20131;-73
2024/01/08 00:47:40;;;;;;;3.92;2.00;;;6.90;99.90;;;;;;5095908;28;20040;-73
2024/01/08 00:50:09;;;;;;;4.38;1.98;;;6.80;99.90;;;;;;5096182;28;20020;-73
2024/01/08 00:52:36;;;;;;;4.15;2.25;;;6.80;99.90;;;;;;5095414;28;20035;-73
2024/01/08 00:55:04;;;;;;;4.45;2.00;;;6.70;99.90;;;;;;5095218;28;20024;-73
2024/01/08 00:57:34;;;;;;;6.00;2.30;;;6.70;99.90;;;;;;5095814;28;20028;-73
2024/01/08 01:00:00;;;;;;;4.75;2.33;;;6.60;99.90;;;;;;5095312;28;20543;-73
2024/01/08 01:02:25;;;;;;;6.28;2.50;;;6.60;99.90;;;;;;5095586;28;20496;-73
2024/01/08 01:04:51;;;;;;;6.60;2.65;;;6.60;99.90;;;;;;5095276;28;20024;-73
2024/01/08 01:07:17;;;;;;;5.57;2.40;;;6.60;99.90;;;;;;5095576;28;20066;-74
2024/01/08 01:09:42;;;;;;;6.07;2.22;;;6.60;99.90;;;;;;5095088;28;20477;-73
2024/01/08 01:12:09;;;;;;;4.18;2.28;;;6.60;99.90;;;;;;5095252;28;20450;-73
2024/01/08 01:14:35;;;;;;;5.93;2.28;;;6.60;99.90;;;;;;5095289;28;20390;-74
2024/01/08 01:17:00;;;;;;;4.40;2.72;;;6.50;99.90;;;;;;5095533;28;20027;-73
2024/01/08 01:19:26;;;;;;;5.10;2.30;;;6.50;99.90;;;;;;5095321;28;20478;-73
2024/01/08 01:21:52;;;;;;;7.43;2.55;;;6.50;99.90;;;;;;5094916;28;20024;-73
2024/01/08 01:24:18;;;;;;;3.67;2.30;;;6.50;99.90;;;;;;5094672;28;20024;-73
2024/01/08 01:26:43;;;;;;;7.30;2.60;;;6.50;99.90;;;;;;5094951;28;20382;-73
2024/01/08 01:29:09;;;;;;;4.00;2.40;;;6.50;99.90;;;;;;5095315;28;20419;-73
2024/01/08 01:31:35;;;;;;;6.07;2.45;;;6.50;99.90;;;;;;5094598;28;20546;-72
2024/01/08 01:34:01;;;;;;;6.78;2.72;;;6.50;99.90;;;;;;5094777;28;20056;-73
2024/01/08 01:36:27;;;;;;;4.07;2.70;;;6.50;99.90;;;;;;5094907;28;20034;-73
2024/01/08 01:38:54;;;;;;;7.07;3.10;;;6.50;99.90;;;;;;5094737;28;20444;-73
2024/01/08 01:41:19;;;;;;;5.15;2.53;;;6.50;99.90;;;;;;5094690;28;20028;-73
2024/01/08 01:43:45;;;;;;;6.22;2.75;;;6.50;99.90;;;;;;5094760;28;20042;-73
2024/01/08 01:46:24;;;;;;;6.65;2.75;;;6.50;99.90;;;;;;5093446;28;20413;-73
2024/01/08 01:48:50;;;;;;;5.93;2.92;;;6.50;99.90;;;;;;5094381;28;20051;-73
2024/01/08 01:51:16;;;;;;;8.05;2.92;;;6.40;99.90;;;;;;5093898;28;20024;-73
2024/01/08 01:53:42;;;;;;;4.75;2.53;;;6.40;99.90;;;;;;5094204;28;20047;-73
2024/01/08 01:56:08;;;;;;;7.00;2.50;;;6.40;99.90;;;;;;5094291;28;20020;-73
2024/01/08 01:58:34;;;;;;;6.45;2.53;;;6.40;99.90;;;;;;5094730;28;20394;-74
2024/01/08 02:01:00;;;;;;;6.63;2.55;;;6.40;99.90;;;;;;5094197;28;20024;-74
2024/01/08 02:03:27;;;;;;;8.15;2.83;;;6.40;99.90;;;;;;5094018;28;20083;-73
2024/01/08 02:05:53;;;;;;;7.25;3.10;;;6.40;99.90;;;;;;5094298;28;20040;-74
2024/01/08 02:08:20;;;;;;;7.65;2.70;;;6.40;99.90;;;;;;5093926;28;20054;-74
2024/01/08 02:10:46;;;;;;;4.40;2.50;;;6.40;99.90;;;;;;5094304;28;20035;-74
2024/01/08 02:13:12;;;;;;;8.32;2.95;;;6.40;99.90;;;;;;5094040;28;20490;-74
2024/01/08 02:15:37;;;;;;;5.05;2.75;;;6.40;99.90;;;;;;5094063;28;20470;-74
2024/01/08 02:18:03;;;;;;;5.50;2.88;;;6.40;99.90;;;;;;5094011;28;20024;-73
2024/01/08 02:20:29;;;;;;;4.80;2.75;;;6.40;99.90;;;;;;5093853;28;20012;-73
2024/01/08 02:22:55;;;;;;;6.57;2.88;;;6.40;99.90;;;;;;5093423;28;20505;-73
2024/01/08 02:25:21;;;;;;;6.97;3.20;;;6.30;99.90;;;;;;5093855;28;20113;-73
2024/01/08 02:27:46;;;;;;;6.65;3.08;;;6.50;99.90;;;;;;5093783;28;20024;-73
2024/01/08 02:30:12;;;;;;;5.90;2.75;;;6.70;99.90;;;;;;5093595;28;20024;-74
2024/01/08 02:32:38;;;;;;;7.78;2.90;;;7.00;99.90;;;;;;5093873;28;20387;-73
2024/01/08 02:35:04;;;;;;;4.50;2.70;;;7.10;99.90;;;;;;5093204;28;20047;-73
2024/01/08 02:37:30;;;;;;;4.95;2.55;;;7.10;99.90;;;;;;5093626;28;20035;-74
2024/01/08 02:39:55;;;;;;;5.90;2.97;;;7.10;99.90;;;;;;5093482;28;20109;-73
2024/01/08 02:42:21;;;;;;;4.40;2.42;;;7.30;99.90;;;;;;5093238;28;20122;-74
2024/01/08 02:44:49;;;;;;;6.60;3.30;;;7.30;99.90;;;;;;5093536;28;20051;-74
2024/01/08 02:47:15;;;;;;;4.80;2.70;;;7.20;99.90;;;;;;5093305;28;20096;-73
2024/01/08 02:49:40;;;;;;;4.80;2.88;;;7.00;99.90;;;;;;5093382;28;20025;-73
2024/01/08 02:52:06;;;;;;;9.35;2.88;;;6.80;99.90;;;;;;5093846;28;20115;-73
2024/01/08 02:54:33;;;;;;;5.70;2.80;;;6.80;99.90;;;;;;5093677;28;20032;-73
2024/01/08 02:56:59;;;;;;;6.60;2.85;;;6.70;99.90;;;;;;5093300;28;20024;-73
2024/01/08 02:59:25;;;;;;;5.78;3.10;;;6.60;99.90;;;;;;5093191;28;20035;-73
2024/01/08 03:01:51;;;;;;;6.38;3.15;;;6.60;99.90;;;;;;5093095;28;20032;-73
2024/01/08 03:04:16;;;;;;;4.15;2.95;;;6.50;99.90;;;;;;5093570;28;20501;-73
2024/01/08 03:06:42;;;;;;;4.88;2.80;;;6.40;99.90;;;;;;5092775;28;20031;-73
2024/01/08 03:09:07;;;;;;;4.40;2.70;;;6.50;99.90;;;;;;5093098;28;20090;-73
2024/01/08 03:11:33;;;;;;;5.63;2.83;;;6.40;99.90;;;;;;5092819;28;20028;-73
2024/01/08 03:13:59;;;;;;;5.35;2.72;;;6.40;99.90;;;;;;5092929;28;20024;-73
2024/01/08 03:16:24;;;;;;;6.95;3.13;;;6.30;99.90;;;;;;5092907;28;20042;-73
2024/01/08 03:18:50;;;;;;;4.90;3.00;;;6.30;99.90;;;;;;5092696;28;20042;-73
2024/01/08 03:21:16;;;;;;;6.10;2.97;;;6.30;99.90;;;;;;5092490;28;20032;-73
2024/01/08 03:23:41;;;;;;;6.13;2.97;;;6.30;99.90;;;;;;5092760;28;20028;-73
2024/01/08 03:26:07;;;;;;;5.35;2.95;;;6.30;99.90;;;;;;5092723;28;20032;-74
2024/01/08 03:28:32;;;;;;;6.60;2.92;;;6.30;99.90;;;;;;5093110;28;20081;-73
2024/01/08 03:31:00;;;;;;;8.32;3.47;;;6.30;99.90;;;;;;5092499;28;20110;-73
2024/01/08 03:33:26;;;;;;;8.77;3.15;;;6.30;99.90;;;;;;5092416;28;20378;-73
2024/01/08 03:35:51;;;;;;;7.53;3.78;;;6.30;99.90;;;;;;5092269;28;20031;-73
2024/01/08 03:38:17;;;;;;;4.72;3.30;;;6.30;99.90;;;;;;5092828;28;20032;-73
2024/01/08 03:40:44;;;;;;;5.55;3.42;;;6.30;99.90;;;;;;5092311;28;20024;-73
2024/01/08 03:43:10;;;;;;;5.20;3.25;;;6.30;99.90;;;;;;5092499;28;20402;-73
2024/01/08 03:45:36;;;;;;;5.80;3.22;;;6.30;99.90;;;;;;5092329;28;20510;-74
2024/01/08 03:48:02;;;;;;;6.60;3.40;;;6.30;99.90;;;;;;5092275;28;20161;-73
2024/01/08 03:50:27;;;;;;;10.23;3.42;;;6.30;99.90;;;;;;5092347;28;20066;-73
2024/01/08 03:52:53;;;;;;;6.50;3.67;;;6.30;99.90;;;;;;5092238;28;20035;-73
2024/01/08 03:55:19;;;;;;;8.65;3.55;;;6.30;99.90;;;;;;5092355;28;20020;-74
2024/01/08 03:57:44;;;;;;;9.55;4.07;;;6.30;99.90;;;;;;5092567;28;20035;-73
2024/01/08 04:00:10;;;;;;;8.55;4.05;;;6.30;99.90;;;;;;5092091;28;20539;-74
2024/01/08 04:02:40;;;;;;;7.28;3.60;;;6.30;99.90;;;;;;5092198;28;20030;-73
2024/01/08 04:05:07;;;;;;;7.68;4.20;;;6.20;99.90;;;;;;5091942;28;20065;-73
2024/01/08 04:07:33;;;;;;;8.27;3.75;;;6.30;99.90;;;;;;5092096;28;20035;-73
2024/01/08 04:09:58;;;;;;;7.78;3.95;;;6.20;99.90;;;;;;5092161;28;20107;-73
2024/01/08 04:12:24;;;;;;;9.10;4.15;;;6.20;99.90;;;;;;5092193;28;20115;-73
2024/01/08 04:14:49;;;;;;;8.25;4.18;;;6.20;99.90;;;;;;5093566;28;20494;-73
2024/01/08 04:17:15;;;;;;;7.78;4.20;;;6.20;99.90;;;;;;5095221;28;20032;-73
2024/01/08 04:19:41;;;;;;;8.32;4.35;;;6.30;99.90;;;;;;5095835;28;20077;-74
2024/01/08 04:22:06;;;;;;;9.15;4.15;;;6.20;99.90;;;;;;5096141;28;20466;-74
2024/01/08 04:24:32;;;;;;;8.40;4.22;;;6.20;99.90;;;;;;5096199;28;20023;-74
2024/01/08 04:26:57;;;;;;;7.32;4.28;;;6.20;99.90;;;;;;5096295;28;20028;-73
2024/01/08 04:29:23;;;;;;;10.07;4.47;;;6.20;99.90;;;;;;5096336;28;20024;-73
2024/01/08 04:31:49;;;;;;;7.53;4.00;;;6.20;99.90;;;;;;5095945;28;20027;-73
2024/01/08 04:34:14;;;;;;;8.18;4.30;;;6.30;99.90;;;;;;5095899;28;20385;-73
2024/01/08 04:36:44;;;;;;;6.80;3.78;;;6.50;99.90;;;;;;5096056;28;20192;-73
2024/01/08 04:39:10;;;;;;;8.00;3.95;;;6.60;99.90;;;;;;5096165;28;20020;-74
2024/01/08 04:41:35;;;;;;;8.30;4.40;;;6.80;99.90;;;;;;5095473;28;20038;-74
2024/01/08 04:44:01;;;;;;;6.65;3.80;;;6.90;99.90;;;;;;5095956;28;20066;-73
2024/01/08 04:46:27;;;;;;;9.00;4.28;;;7.00;99.90;;;;;;5095558;28;20048;-73
2024/01/08 04:48:52;;;;;;;7.13;4.10;;;7.00;99.90;;;;;;5095288;28;20366;-73
2024/01/08 04:51:28;;;;;;;9.18;4.25;;;6.90;99.90;;;;;;5095786;28;20417;-74
2024/01/08 04:53:54;;;;;;;6.53;4.25;;;6.80;99.90;;;;;;5095833;28;20067;-74
2024/01/08 04:56:21;;;;;;;7.43;4.68;;;6.60;99.90;;;;;;5095734;28;20024;-74
2024/01/08 04:58:46;;;;;;;10.15;4.55;;;6.50;99.90;;;;;;5095296;28;20082;-73
2024/01/08 05:01:12;;;;;;;6.78;4.63;;;6.40;99.90;;;;;;5095142;28;20435;-73
2024/01/08 05:03:38;;;;;;;8.70;4.80;;;6.30;99.90;;;;;;5095693;28;20478;-74
2024/01/08 05:06:03;;;;;;;11.13;5.10;;;6.20;99.90;;;;;;5095538;28;20086;-74
2024/01/08 05:08:29;;;;;;;10.57;5.18;;;6.20;99.90;;;;;;5095338;28;20032;-73
2024/01/08 05:10:54;;;;;;;8.20;5.43;;;6.10;99.90;;;;;;5095219;28;20063;-73
2024/01/08 05:13:20;;;;;;;9.95;5.38;;;6.10;99.90;;;;;;5095513;28;20115;-74
2024/01/08 05:15:46;;;;;;;10.05;5.60;;;6.00;99.90;;;;;;5094735;28;20454;-74
2024/01/08 05:18:11;;;;;;;8.38;5.50;;;5.90;99.90;;;;;;5095378;28;20039;-73
2024/01/08 05:20:37;;;;;;;8.25;5.57;;;5.90;99.90;;;;;;5095179;28;20016;-74
2024/01/08 05:23:03;;;;;;;10.32;5.93;;;5.80;99.90;;;;;;5094944;28;20074;-74
2024/01/08 05:25:31;;;;;;;9.95;5.68;;;5.80;99.90;;;;;;5094467;28;20036;-73
2024/01/08 05:27:56;;;;;;;10.43;6.07;;;5.80;99.90;;;;;;5094414;28;20055;-73
2024/01/08 05:30:22;;;;;;;8.35;5.53;;;5.80;99.90;;;;;;5094582;28;20047;-73
2024/01/08 05:32:50;;;;;;;10.55;5.93;;;5.60;99.90;;;;;;5094794;28;20246;-73
2024/01/08 05:35:16;;;;;;;11.45;5.95;;;5.70;99.90;;;;;;5094957;28;20103;-73
2024/01/08 05:37:41;;;;;;;8.30;5.90;;;5.70;99.90;;;;;;5094670;28;20115;-73
2024/01/08 05:40:07;;;;;;;8.75;5.95;;;5.70;99.90;;;;;;5094687;28;20456;-74
2024/01/08 05:42:33;;;;;;;7.10;5.20;;;5.60;99.90;;;;;;5094736;28;20078;-73
2024/01/08 05:44:58;;;;;;;11.65;5.63;;;5.60;99.90;;;;;;5094168;28;20513;-73
2024/01/08 05:47:24;;;;;;;7.85;5.30;;;5.60;99.90;;;;;;5094562;28;20046;-73
2024/01/08 05:49:50;;;;;;;9.88;5.85;;;5.60;99.90;;;;;;5094567;28;20024;-73
2024/01/08 05:52:15;;;;;;;9.40;5.80;;;5.50;99.90;;;;;;5094874;28;20490;-73
2024/01/08 05:54:41;;;;;;;8.40;5.40;;;5.50;99.90;;;;;;5094468;28;20032;-73
2024/01/08 05:57:06;;;;;;;9.00;5.40;;;5.50;99.90;;;;;;5094351;28;20027;-73
2024/01/08 05:59:32;;;;;;;12.75;5.70;;;5.50;99.90;;;;;;5094228;28;20057;-74
2024/01/08 06:01:58;;;;;;;7.60;5.60;;;5.50;99.90;;;;;;5093184;28;20542;-74
2024/01/08 06:04:23;;;;;;;6.75;5.35;;;5.40;99.90;;;;;;5094239;28;20053;-73
2024/01/08 06:06:51;;;;;;;8.93;5.43;;;5.40;99.90;;;;;;5094025;28;20389;-74
2024/01/08 06:09:17;;;;;;;7.45;5.63;;;5.30;99.90;;;;;;5094236;28;20482;-74
2024/01/08 06:11:42;;;;;;;11.07;6.30;;;5.30;99.90;;;;;;5094006;28;20146;-73
2024/01/08 06:14:08;;;;;;;9.68;5.97;;;5.30;99.90;;;;;;5093717;28;20258;-73
2024/01/08 06:16:35;;;;;;;10.32;6.50;;;5.40;99.90;;;;;;5094017;28;20066;-74
2024/01/08 06:19:02;;;;;;;7.32;5.60;;;5.40;99.90;;;;;;5094410;28;20035;-73
2024/01/08 06:21:28;;;;;;;8.40;5.50;;;5.30;99.90;;;;;;5093823;28;20024;-74
2024/01/08 06:23:53;;;;;;;8.43;5.47;;;5.20;99.90;;;;;;5093962;28;20039;-74
2024/01/08 06:26:20;;;;;;;7.15;4.90;;;5.30;99.90;;;;;;5093934;28;20032;-73
2024/01/08 06:28:45;;;;;;;9.98;5.40;;;5.30;99.90;;;;;;5093264;28;20020;-74
2024/01/08 06:31:12;;;;;;;7.63;5.60;;;5.20;99.90;;;;;;5093575;28;20028;-73
2024/01/08 06:33:38;;;;;;;8.05;5.65;;;5.10;99.90;;;;;;5093956;28;20032;-73
2024/01/08 06:36:04;;;;;;;10.15;5.55;;;5.00;99.90;;;;;;5093660;28;20099;-73
2024/01/08 06:38:30;;;;;;;7.22;5.30;;;5.10;99.90;;;;;;5093130;28;20032;-73
2024/01/08 06:40:55;;;;;;;6.93;5.15;;;5.20;99.90;;;;;;5093684;28;20035;-73
2024/01/08 06:43:21;;;;;;;8.50;5.05;;;5.50;99.90;;;;;;5093157;28;20027;-74
2024/01/08 06:45:49;;;;;;;8.95;5.00;;;5.60;99.90;;;;;;5093312;28;20052;-73
2024/01/08 06:48:14;;;;;;;7.10;4.60;;;5.80;99.90;;;;;;5093420;28;20069;-73
2024/01/08 06:50:40;;;;;;;6.38;4.47;;;5.90;99.90;;;;;;5093310;28;20106;-74
2024/01/08 06:53:06;;;;;;;7.15;4.65;;;5.90;99.90;;;;;;5093517;28;20039;-73
2024/01/08 06:55:31;;;;;;;6.43;4.40;;;6.10;99.90;;;;;;5093246;28;20028;-74
2024/01/08 06:57:57;;;;;;;7.07;4.43;;;6.20;99.90;;;;;;5092803;28;20437;-73
2024/01/08 07:00:25;;;;;;;5.93;4.50;;;6.10;99.90;;;;;;5093482;28;20028;-73
2024/01/08 07:02:51;;;;;;;4.65;4.13;;;6.00;99.90;;;;;;5093096;28;20547;-74
2024/01/08 07:05:18;;;;;;;8.63;4.68;;;5.90;99.90;;;;;;5093242;28;20023;-74
2024/01/08 07:07:44;;;;;;;6.85;5.03;;;5.80;99.90;;;;;;5092881;28;20032;-73
2024/01/08 07:10:10;;;;;;;6.47;4.75;;;5.70;99.90;;;;;;5092856;28;20039;-74
2024/01/08 07:12:36;;;;;;;5.85;4.80;;;5.70;99.90;;;;;;5092977;28;20066;-74
2024/01/08 07:15:03;;;;;;;5.25;4.60;;;5.60;99.90;;;;;;5092924;28;20055;-73
2024/01/08 07:17:29;;;;;;;7.53;4.90;;;5.60;99.90;;;;;;5092903;28;20462;-74
2024/01/08 07:19:55;;;;;;;7.90;5.38;;;5.60;99.90;;;;;;5092883;28;20035;-73
2024/01/08 07:22:20;;;;;;;7.45;5.60;;;5.60;99.90;;;;;;5093082;28;20024;-73
2024/01/08 07:24:46;;;;;;;7.47;5.57;;;5.60;99.90;;;;;;5092758;28;20394;-73
2024/01/08 07:27:12;;;;;;;5.95;5.32;;;5.60;99.90;;;;;;5092313;28;20039;-74
2024/01/08 07:29:37;;;;;;;8.75;5.28;;;5.60;99.90;;;;;;5092570;28;20024;-73
2024/01/08 07:32:03;;;;;;;6.75;5.00;;;5.60;99.90;;;;;;5092901;28;20020;-74
2024/01/08 07:34:29;;;;;;;8.07;5.30;;;5.60;99.90;;;;;;5092572;28;20032;-74
2024/01/08 07:36:55;;;;;;;7.53;5.43;;;5.60;99.90;;;;;;5092517;28;20020;-73
2024/01/08 07:39:20;;;;;;;8.25;5.47;;;5.60;99.90;;;;;;5092497;28;20028;-74
2024/01/08 07:41:47;;;;;;;6.00;5.35;;;5.60;99.90;;;;;;5092213;28;20032;-74
2024/01/08 07:44:14;;;;;;;7.45;5.55;;;5.60;99.90;;;;;;5092520;28;20028;-74
2024/01/08 07:46:39;;;;;;;9.60;5.93;;;5.50;99.90;;;;;;5092384;28;20040;-73
2024/01/08 07:49:05;;;;;;;7.90;5.68;;;5.50;99.90;;;;;;5092038;28;20446;-73
2024/01/08 07:51:30;;;;;;;8.60;5.65;;;5.50;99.90;;;;;;5092241;28;20490;-73
2024/01/08 07:53:56;;;;;;;8.60;5.70;;;5.50;99.90;;;;;;5092402;28;20044;-73
2024/01/08 07:56:25;;;;;;;7.15;5.72;;;5.50;99.90;;;;;;5091908;28;20038;-74
2024/01/08 07:58:51;;;;;;;8.50;5.78;;;5.50;99.90;;;;;;5092085;28;20042;-74
2024/01/08 08:01:17;;;;;;;9.30;5.82;;;5.50;99.90;;;;;;5092275;28;20067;-74
2024/01/08 08:03:42;;;;;;;8.55;5.97;;;5.50;99.90;;;;;;5092062;28;20482;-73
2024/01/08 08:06:09;;;;;;;8.25;5.55;;;5.50;99.90;;;;;;5092054;28;20470;-74
2024/01/08 08:08:35;;;;;;;7.47;5.57;;;5.50;99.90;;;;;;5092226;28;20032;-73
2024/01/08 08:11:03;;;;;;;9.75;6.22;;;5.40;99.90;;;;;;5092130;28;20024;-74
2024/01/08 08:13:29;;;;;;;8.95;5.82;;;5.40;99.90;;;;;;5092078;28;20040;-73
2024/01/08 08:15:55;;;;;;;10.73;5.72;;;5.50;99.90;;;;;;5092125;28;20031;-73
2024/01/08 08:18:20;;;;;;;6.45;5.55;;;5.50;99.90;;;;;;5090870;28;20028;-73
2024/01/08 08:20:46;;;;;;;11.63;6.13;;;5.50;99.90;;;;;;5090661;28;20480;-73
2024/01/08 08:23:12;;;;;;;9.10;5.90;;;5.50;99.90;;;;;;5091940;28;20039;-73
2024/01/08 08:25:38;;;;;;;8.40;5.57;;;5.50;99.90;;;;;;5091832;28;20028;-73
2024/01/08 08:28:05;;;;;;;7.97;5.70;;;5.60;99.90;;;;;;5091944;28;20105;-73
2024/01/08 08:30:30;;;;;;;6.88;5.40;;;5.60;99.90;;;;;;5092095;28;20039;-73
2024/01/08 08:32:58;;;;;;;8.23;5.72;;;5.60;99.90;;;;;;5092154;28;20109;-73
2024/01/08 08:35:24;;;;;;;7.50;5.45;;;5.50;99.90;;;;;;5091639;28;20069;-73
2024/01/08 08:37:50;;;;;;;6.97;5.20;;;5.50;99.90;;;;;;5092559;28;20099;-74
2024/01/08 08:40:16;;;;;;;6.40;5.45;;;5.50;99.90;;;;;;5091259;28;20104;-73
2024/01/08 08:42:42;;;;;;;8.10;5.28;;;5.50;99.90;;;;;;5091813;28;20027;-73
2024/01/08 08:45:08;;;;;;;8.57;5.18;;;5.60;99.90;;;;;;5091871;28;20374;-73
2024/01/08 08:47:33;;;;;;;7.47;5.78;;;5.50;99.90;;;;;;5091669;28;20032;-73
2024/01/08 08:49:59;;;;;;;10.10;5.65;;;5.70;99.90;;;;;;5092051;28;20078;-73
2024/01/08 08:52:25;;;;;;;7.00;5.40;;;5.90;99.90;;;;;;5091733;28;20059;-73
2024/01/08 08:54:51;;;;;;;7.35;5.35;;;6.20;99.90;;;;;;5091981;28;20071;-73
2024/01/08 08:57:16;;;;;;;6.57;5.38;;;6.30;99.90;;;;;;5091754;28;20470;-73
2024/01/08 08:59:43;;;;;;;6.47;5.68;;;6.30;99.90;;;;;;5091553;28;20051;-73
2024/01/08 09:02:09;;;;;;;6.55;5.78;;;6.40;99.90;;;;;;5095579;28;20497;-73
2024/01/08 09:04:35;;;;;;;6.93;5.70;;;6.50;99.90;;;;;;5095405;28;20028;-73
2024/01/08 09:07:01;;;;;;;6.95;5.63;;;6.60;99.90;;;;;;5095472;28;20074;-73
2024/01/08 09:09:26;;;;;;;6.88;5.60;;;6.50;99.90;;;;;;5094900;28;20444;-73
2024/01/08 09:11:52;;;;;;;5.95;5.30;;;6.40;99.90;;;;;;5095083;28;20027;-73
2024/01/08 09:14:18;;;;;;;11.00;6.38;;;6.20;99.90;;;;;;5095673;28;20032;-73
2024/01/08 09:16:44;;;;;;;8.70;6.68;;;6.10;99.90;;;;;;5095139;28;20026;-73
2024/01/08 09:19:09;;;;;;;9.10;6.10;;;6.10;99.90;;;;;;5094873;28;20107;-73
2024/01/08 09:21:35;;;;;;;6.72;5.75;;;6.10;99.90;;;;;;5095162;28;20020;-73
2024/01/08 09:24:01;;;;;;;9.15;6.75;;;6.10;99.90;;;;;;5094962;28;20028;-73
2024/01/08 09:26:26;;;;;;;10.10;6.72;;;6.00;99.90;;;;;;5094697;28;20074;-73
2024/01/08 09:28:52;;;;;;;8.30;6.68;;;6.00;99.90;;;;;;5095274;28;20024;-72
2024/01/08 09:31:18;;;;;;;10.10;7.07;;;6.00;99.90;;;;;;5094972;28;20028;-73
2024/01/08 09:33:43;;;;;;;7.75;6.80;;;5.90;99.90;;;;;;5094719;28;20594;-73
2024/01/08 09:36:09;;;;;;;7.80;6.88;;;6.00;99.90;;;;;;5094693;28;20035;-73
2024/01/08 09:38:35;;;;;;;9.95;6.70;;;6.00;99.90;;;;;;5095014;28;20024;-73
2024/01/08 09:41:01;;;;;;;9.15;6.70;;;5.90;99.90;;;;;;5094599;28;20462;-74
2024/01/08 09:43:28;;;;;;;10.00;7.57;;;5.90;99.90;;;;;;5094721;28;20051;-74
2024/01/08 09:46:03;;;;;;;10.38;7.60;;;6.00;99.90;;;;;;5094406;28;20521;-73
2024/01/08 09:48:30;;;;;;;10.35;7.25;;;6.00;99.90;;;;;;5094861;28;20089;-74
2024/01/08 09:50:59;;;;;;;10.82;7.95;;;6.00;99.90;;;;;;5094512;28;20432;-73
2024/01/08 09:53:28;;;;;;;9.93;8.25;;;6.00;99.90;;;;;;5094068;28;20561;-73
2024/01/08 09:55:54;;;;;;;15.90;8.05;;;6.00;99.90;;;;;;5094863;28;20024;-73
2024/01/08 09:58:19;;;;;;;10.40;7.40;;;6.00;99.90;;;;;;5094566;28;20481;-73
2024/01/08 10:00:45;;;;;;;10.20;7.95;;;6.10;99.90;;;;;;5094337;28;20028;-73
2024/01/08 10:03:11;;;;;;;10.15;7.93;;;6.00;99.90;;;;;;5094324;28;20031;-73
2024/01/08 10:05:38;;;;;;;10.60;8.48;;;6.10;99.90;;;;;;5094226;28;20062;-73
2024/01/08 10:08:05;;;;;;;10.10;8.02;;;6.10;99.90;;;;;;5094578;28;20036;-73
2024/01/08 10:10:31;;;;;;;13.10;9.27;;;6.10;99.90;;;;;;5094205;28;20513;-73
2024/01/08 10:12:58;;;;;;;11.60;9.27;;;6.10;99.90;;;;;;5093291;28;20043;-73
2024/01/08 10:15:24;;;;;;;11.70;9.75;;;6.10;99.90;;;;;;5094300;28;20021;-73
2024/01/08 10:18:00;;;;;;;12.07;9.00;;;6.10;99.90;;;;;;5093914;28;20032;-74
2024/01/08 10:20:25;;;;;;;10.10;9.00;;;6.10;99.90;;;;;;5093656;28;20024;-73
2024/01/08 10:23:05;;;;;;;12.00;8.70;;;6.10;99.90;;;;;;5093874;28;20031;-73
2024/01/08 10:25:31;;;;;;;11.63;9.00;;;6.10;99.90;;;;;;5093830;28;20035;-74
2024/01/08 10:27:56;;;;;;;11.30;8.93;;;6.10;99.90;;;;;;5094067;28;20414;-73
2024/01/08 10:30:23;;;;;;;11.45;9.30;;;6.20;99.90;;;;;;5093707;28;20035;-73
2024/01/08 10:32:49;;;;;;;12.68;9.30;;;6.20;99.90;;;;;;5093643;28;20024;-73
2024/01/08 10:35:16;;;;;;;12.40;9.43;;;6.30;99.90;;;;;;5093716;28;20476;-74
2024/01/08 10:37:44;;;;;;;10.88;9.45;;;6.30;99.90;;;;;;5093649;28;20446;-73
2024/01/08 10:40:12;;;;;;;13.40;9.80;;;6.30;99.90;;;;;;5093579;28;20023;-73
2024/01/08 10:42:40;;;;;;;12.60;11.25;;;6.30;99.90;;;;;;5093495;28;20055;-73
2024/01/08 10:45:07;;;;;;;11.60;10.07;;;6.30;99.90;;;;;;5093683;28;20059;-73
2024/01/08 10:47:35;;;;;;;12.35;10.45;;;6.30;99.90;;;;;;5093332;28;20028;-73
2024/01/08 10:50:05;;;;;;;12.20;9.80;;;6.30;99.90;;;;;;5092910;28;20682;-73
2024/01/08 10:52:35;;;;;;;13.25;10.75;;;6.40;99.90;;;;;;5093295;28;20040;-74
2024/01/08 10:55:02;;;;;;;12.18;9.93;;;6.30;99.90;;;;;;5093310;28;20366;-73
2024/01/08 10:57:43;;;;;;;13.32;9.38;;;6.50;99.90;;;;;;5093346;28;20047;-73
2024/01/08 11:00:12;;;;;;;12.77;9.57;;;6.80;99.90;;;;;;5093164;28;20032;-73
2024/01/08 11:02:39;;;;;;;11.80;9.52;;;6.90;99.90;;;;;;5093437;28;20021;-73
2024/01/08 11:05:08;;;;;;;11.80;9.07;;;7.00;99.90;;;;;;5092909;28;20038;-72
2024/01/08 11:07:41;;;;;;;12.25;10.20;;;7.30;99.90;;;;;;5092989;28;20016;-73
2024/01/08 11:10:09;;;;;;;16.63;14.50;;;7.20;99.90;;;;;;5093338;28;20028;-72
2024/01/08 11:12:55;;;;;;;19.67;14.57;;;7.20;99.90;;;;;;5092761;28;20025;-73
2024/01/08 11:15:25;;;;;;;15.07;11.20;;;7.30;99.90;;;;;;5092974;28;20039;-73
2024/01/08 11:17:52;;;;;;;13.27;11.45;;;7.10;99.90;;;;;;5092898;28;20020;-73
2024/01/08 11:20:33;;;;;;;12.85;9.90;;;7.00;99.90;;;;;;5092508;28;20446;-74
2024/01/08 11:23:01;;;;;;;11.95;8.70;;;7.00;99.90;;;;;;5092782;28;20085;-73
2024/01/08 11:25:27;;;;;;;12.57;9.73;;;6.90;99.90;;;;;;5092684;28;20028;-72
2024/01/08 11:27:57;;;;;;;12.10;10.75;;;6.90;99.90;;;;;;5092752;28;20028;-73
2024/01/08 11:30:23;;;;;;;14.00;10.68;;;6.80;99.90;;;;;;5092967;28;20062;-73
2024/01/08 11:32:55;;;;;;;13.00;9.93;;;6.80;99.90;;;;;;5092196;28;20028;-72
2024/01/08 11:35:25;;;;;;;14.82;10.05;;;6.80;99.90;;;;;;5092743;28;20069;-72
2024/01/08 11:38:23;;;;;;;14.73;10.60;;;6.80;99.90;;;;;;5092971;28;20047;-73
2024/01/08 11:40:49;;;;;;;11.85;9.25;;;6.80;99.90;;;;;;5089270;28;20035;-73
2024/01/08 11:43:15;;;;;;;11.43;8.98;;;6.80;99.90;;;;;;5092437;28;20031;-72
2024/01/08 11:45:40;;;;;;;15.45;13.88;;;6.80;99.90;;;;;;5092203;28;20131;-73
2024/01/08 11:48:07;;;;;;;18.73;16.83;;;6.80;99.90;;;;;;5092311;28;20056;-73
2024/01/08 11:50:33;;;;;;;19.95;16.23;;;6.80;99.90;;;;;;5091047;28;20020;-73
2024/01/08 11:53:01;;;;;;;74.32;60.53;;;6.80;99.90;;;;;;5091063;28;20127;-73
2024/01/08 11:55:27;;;;;;;40.20;34.78;;;6.80;99.90;;;;;;5092194;28;20488;-73
2024/01/08 11:57:54;;;;;;;55.40;49.60;;;6.80;99.90;;;;;;5092338;28;20390;-73
2024/01/08 12:00:22;;;;;;;66.10;59.42;;;6.70;99.90;;;;;;5092475;28;20028;-73
2024/01/08 12:02:48;;;;;;;26.17;23.58;;;6.70;99.90;;;;;;5091928;28;20110;-73
2024/01/08 12:05:14;;;;;;;23.77;20.63;;;6.70;99.90;;;;;;5092309;28;20039;-73
2024/01/08 12:07:41;;;;;;;17.95;16.23;;;6.70;99.90;;;;;;5092125;28;20023;-73
2024/01/08 12:10:12;;;;;;;18.98;15.40;;;6.70;99.90;;;;;;5092118;28;20024;-73
2024/01/08 12:12:38;;;;;;;18.42;14.65;;;6.80;99.90;;;;;;5091885;28;20021;-73
2024/01/08 12:15:04;;;;;;;23.98;19.23;;;6.80;99.90;;;;;;5092140;28;20028;-73
2024/01/08 12:17:30;;;;;;;41.05;31.88;;;6.80;99.90;;;;;;5091671;28;20478;-73
2024/01/08 12:19:57;;;;;;;20.02;15.50;;;6.80;99.90;;;;;;5092478;28;20031;-73
2024/01/08 12:22:23;;;;;;;17.58;14.90;;;6.80;99.90;;;;;;5092070;28;20056;-73
2024/01/08 12:24:51;;;;;;;21.63;17.80;;;6.70;99.90;;;;;;5092110;28;20024;-73
2024/01/08 12:27:19;;;;;;;15.93;12.23;;;6.80;99.90;;;;;;5092096;28;20055;-73
2024/01/08 12:29:45;;;;;;;15.35;12.05;;;6.90;99.90;;;;;;5092212;28;20032;-73
2024/01/08 12:32:16;;;;;;;16.20;13.60;;;6.80;99.90;;;;;;5091566;28;20055;-73
2024/01/08 12:34:43;;;;;;;16.55;13.40;;;6.90;99.90;;;;;;5091892;28;20067;-73
2024/01/08 12:37:11;;;;;;;19.48;16.85;;;6.80;99.90;;;;;;5096071;28;20039;-73
2024/01/08 12:39:38;;;;;;;19.15;16.80;;;6.90;99.90;;;;;;5096083;28;20035;-73
2024/01/08 12:42:12;;;;;;;16.85;14.20;;;7.00;99.90;;;;;;5095534;28;20027;-73
2024/01/08 12:44:38;;;;;;;18.17;15.27;;;7.00;99.90;;;;;;5095890;28;20032;-73
2024/01/08 12:47:05;;;;;;;18.20;14.48;;;7.10;99.90;;;;;;5095797;28;20051;-72
2024/01/08 12:49:34;;;;;;;20.13;15.63;;;7.20;99.90;;;;;;5095514;28;20559;-73